Time;durP1;ratioP1;P1;durP2;ratioP2;P2;SDS_P1;SDS_P2;PMS_P1;PMS_P2;Temp;Humidity;BMP_temperature;BMP_pressure;BME280_temperature;BME280_humidity;BME280_pressure;Samples;Min_cycle;Max_cycle;Signal;HPM_P1;HPM_P2
2022/03/21 00:01:56;;;;;;;37.17;20.80;;;7.30;99.90;;;;;;5053628;28;20098;-59
2022/03/21 00:04:23;;;;;;;34.22;20.35;;;7.30;99.90;;;;;;5052685;28;20044;-59
2022/03/21 00:06:49;;;;;;;29.63;19.15;;;7.30;99.90;;;;;;5044580;28;20842;-58
2022/03/21 00:09:15;;;;;;;29.27;19.63;;;7.40;99.90;;;;;;5042314;28;20549;-59
2022/03/21 00:11:41;;;;;;;27.88;17.77;;;7.40;99.90;;;;;;5047046;28;20045;-59
2022/03/21 00:14:07;;;;;;;28.45;17.92;;;7.40;99.90;;;;;;5030030;28;20045;-59
2022/03/21 00:16:33;;;;;;;24.95;17.92;;;7.40;99.90;;;;;;5048061;28;20045;-59
2022/03/21 00:19:00;;;;;;;29.92;19.15;;;7.40;99.90;;;;;;5047175;28;20048;-59
2022/03/21 00:21:26;;;;;;;27.80;17.75;;;7.50;99.90;;;;;;5046097;28;20519;-62
2022/03/21 00:23:51;;;;;;;31.55;18.23;;;7.50;99.90;;;;;;5044106;28;20041;-60
2022/03/21 00:26:17;;;;;;;25.38;16.63;;;7.50;99.90;;;;;;5037863;28;20052;-59
2022/03/21 00:28:42;;;;;;;23.40;16.52;;;7.50;99.90;;;;;;5051095;28;20144;-59
2022/03/21 00:31:08;;;;;;;22.52;14.85;;;7.50;99.90;;;;;;5050881;28;20047;-60
2022/03/21 00:33:34;;;;;;;24.67;16.33;;;7.60;99.90;;;;;;5051556;28;20070;-59
2022/03/21 00:36:00;;;;;;;22.33;13.50;;;7.60;99.90;;;;;;5021929;28;20049;-60
2022/03/21 00:38:26;;;;;;;23.05;14.27;;;7.60;99.90;;;;;;5022203;28;20087;-59
2022/03/21 00:40:52;;;;;;;26.85;16.15;;;7.60;99.90;;;;;;5052900;28;20074;-59
2022/03/21 00:43:23;;;;;;;23.88;16.48;;;7.60;99.90;;;;;;5047801;28;20045;-59
2022/03/21 00:45:52;;;;;;;24.83;15.05;;;7.60;99.90;;;;;;5040139;28;20041;-59
2022/03/21 00:48:21;;;;;;;23.95;15.07;;;7.60;99.90;;;;;;5037905;28;20134;-59
2022/03/21 00:50:47;;;;;;;21.63;14.07;;;7.60;99.90;;;;;;5049033;28;20048;-59
2022/03/21 00:53:16;;;;;;;24.60;15.35;;;7.60;99.90;;;;;;5058688;28;20037;-59
2022/03/21 00:55:41;;;;;;;24.05;14.20;;;7.60;99.90;;;;;;5040395;28;20067;-59
2022/03/21 00:58:07;;;;;;;20.48;15.30;;;7.60;99.90;;;;;;5040639;28;20048;-59
2022/03/21 01:00:33;;;;;;;21.48;13.10;;;7.60;99.90;;;;;;5058218;28;20139;-59
2022/03/21 01:03:00;;;;;;;25.58;14.32;;;7.60;99.90;;;;;;5036247;28;20555;-59
2022/03/21 01:05:26;;;;;;;17.85;11.85;;;7.60;99.90;;;;;;5036552;28;20080;-59
2022/03/21 01:07:52;;;;;;;19.52;12.10;;;7.60;99.90;;;;;;5045713;28;20136;-59
2022/03/21 01:10:19;;;;;;;20.60;12.95;;;7.60;99.90;;;;;;5058155;28;20161;-60
2022/03/21 01:12:46;;;;;;;20.75;12.80;;;7.60;99.90;;;;;;5058234;28;20589;-59
2022/03/21 01:15:14;;;;;;;22.55;14.73;;;7.60;99.90;;;;;;5057605;28;20037;-59
2022/03/21 01:17:42;;;;;;;20.35;13.05;;;7.60;99.90;;;;;;5058131;28;20056;-59
2022/03/21 01:20:08;;;;;;;19.27;12.75;;;7.60;99.90;;;;;;5054413;28;20045;-61
2022/03/21 01:22:34;;;;;;;18.83;12.00;;;7.60;99.90;;;;;;5035889;28;20443;-59
2022/03/21 01:25:00;;;;;;;20.42;11.35;;;7.60;99.90;;;;;;5050696;28;20033;-59
2022/03/21 01:27:26;;;;;;;23.05;12.55;;;7.60;99.90;;;;;;5030483;28;20048;-60
2022/03/21 01:29:51;;;;;;;23.15;12.60;;;7.60;99.90;;;;;;5056715;28;20044;-59
2022/03/21 01:32:17;;;;;;;19.75;11.90;;;8.00;99.90;;;;;;5057843;28;20504;-59
2022/03/21 01:34:43;;;;;;;24.00;12.35;;;7.60;99.90;;;;;;5056789;28;20052;-59
2022/03/21 01:37:09;;;;;;;22.90;10.82;;;7.60;99.90;;;;;;5057179;28;20145;-59
2022/03/21 01:39:37;;;;;;;20.75;11.85;;;7.60;99.90;;;;;;5057317;28;20548;-59
2022/03/21 01:42:03;;;;;;;15.80;11.15;;;7.60;99.90;;;;;;5039513;28;20049;-60
2022/03/21 01:44:29;;;;;;;21.25;12.15;;;7.60;99.90;;;;;;5057196;28;20399;-61
2022/03/21 01:46:55;;;;;;;17.80;11.57;;;7.60;99.90;;;;;;5057790;28;20044;-59
2022/03/21 01:49:20;;;;;;;18.08;11.77;;;7.60;99.90;;;;;;5051212;28;20118;-61
2022/03/21 01:51:46;;;;;;;14.98;11.25;;;7.60;99.90;;;;;;5057337;28;20147;-61
2022/03/21 01:56:57;;;;;;;17.60;12.35;;;7.60;99.90;;;;;;5040459;28;20107;-61
2022/03/21 01:59:24;;;;;;;17.67;11.23;;;7.50;99.90;;;;;;5056364;28;20831;-61
2022/03/21 02:01:50;;;;;;;12.57;9.18;;;7.50;99.90;;;;;;5056632;28;20131;-59
2022/03/21 02:04:15;;;;;;;17.30;10.38;;;7.50;99.90;;;;;;5056989;28;20044;-61
2022/03/21 02:06:45;;;;;;;19.13;11.35;;;7.50;99.90;;;;;;5056468;28;20037;-61
2022/03/21 02:09:11;;;;;;;17.02;10.98;;;7.60;99.90;;;;;;5035234;28;20137;-61
2022/03/21 02:11:38;;;;;;;16.55;10.18;;;7.50;99.90;;;;;;5047170;28;20044;-61
2022/03/21 02:14:06;;;;;;;18.75;10.45;;;7.50;99.90;;;;;;5056556;28;20044;-59
2022/03/21 02:16:33;;;;;;;18.15;11.73;;;7.50;99.90;;;;;;5056462;28;20058;-61
2022/03/21 02:19:01;;;;;;;19.45;10.55;;;7.40;99.90;;;;;;5056405;28;20072;-59
2022/03/21 02:21:43;;;;;;;13.88;9.02;;;7.40;99.90;;;;;;5056757;28;20048;-61
2022/03/21 02:24:28;;;;;;;17.98;10.50;;;7.30;99.90;;;;;;5031553;28;20051;-61
2022/03/21 02:26:55;;;;;;;17.30;11.57;;;7.30;99.90;;;;;;5049570;28;20048;-61
2022/03/21 02:29:24;;;;;;;19.70;10.80;;;7.20;99.90;;;;;;5056316;28;20052;-61
2022/03/21 02:31:50;;;;;;;19.60;11.75;;;7.20;99.90;;;;;;5056503;28;20066;-59
2022/03/21 02:34:16;;;;;;;14.68;11.40;;;7.10;99.90;;;;;;5056292;28;20053;-59
2022/03/21 02:36:42;;;;;;;15.43;11.25;;;7.10;99.90;;;;;;5056921;28;20131;-61
2022/03/21 02:39:08;;;;;;;17.27;10.70;;;7.00;99.90;;;;;;5056733;28;20036;-59
2022/03/21 02:41:34;;;;;;;19.33;10.82;;;6.90;99.90;;;;;;5055591;28;20577;-61
2022/03/21 02:43:59;;;;;;;14.00;9.43;;;6.90;99.90;;;;;;5056546;28;20044;-61
2022/03/21 02:46:26;;;;;;;17.02;11.13;;;6.80;99.90;;;;;;5048212;28;20071;-59
2022/03/21 02:48:54;;;;;;;22.05;11.23;;;6.80;99.90;;;;;;5053151;28;20122;-59
2022/03/21 02:51:20;;;;;;;17.30;11.02;;;6.70;99.90;;;;;;5055459;28;20060;-59
2022/03/21 02:53:50;;;;;;;18.67;11.55;;;6.70;99.90;;;;;;5055905;28;20068;-60
2022/03/21 02:56:17;;;;;;;22.73;12.68;;;6.60;99.90;;;;;;5055834;28;20052;-60
2022/03/21 02:58:46;;;;;;;22.75;13.63;;;6.60;99.90;;;;;;5055817;28;20468;-59
2022/03/21 03:01:14;;;;;;;19.77;12.45;;;6.50;99.90;;;;;;5056035;28;20049;-60
2022/03/21 03:03:40;;;;;;;22.20;13.52;;;6.50;99.90;;;;;;5055716;28;20028;-59
2022/03/21 03:06:06;;;;;;;16.65;11.07;;;6.40;99.90;;;;;;5056126;28;20048;-60
2022/03/21 03:08:32;;;;;;;21.02;11.25;;;6.40;99.90;;;;;;5055087;28;20044;-61
2022/03/21 03:10:58;;;;;;;22.42;11.70;;;6.30;99.90;;;;;;5055127;28;20060;-61
2022/03/21 03:13:24;;;;;;;20.05;12.27;;;6.20;99.90;;;;;;5055496;28;20060;-59
2022/03/21 03:15:49;;;;;;;18.52;12.45;;;6.20;99.90;;;;;;5055128;28;20718;-59
2022/03/21 03:18:15;;;;;;;18.30;10.68;;;6.20;99.90;;;;;;5055458;28;20334;-60
2022/03/21 03:20:51;;;;;;;17.98;11.70;;;6.20;99.90;;;;;;5055563;28;20047;-60
2022/03/21 03:23:22;;;;;;;14.93;11.57;;;6.10;99.90;;;;;;5055395;28;20049;-59
2022/03/21 03:26:07;;;;;;;17.27;10.00;;;6.10;99.90;;;;;;5055386;28;20135;-59
2022/03/21 03:28:33;;;;;;;20.60;12.57;;;6.00;99.90;;;;;;5049261;28;20463;-59
2022/03/21 03:31:00;;;;;;;18.63;10.65;;;6.00;99.90;;;;;;5055369;28;20380;-60
2022/03/21 03:33:27;;;;;;;19.63;11.60;;;5.90;99.90;;;;;;5055467;28;20044;-60
2022/03/21 03:35:53;;;;;;;17.27;12.27;;;5.80;99.90;;;;;;5055524;28;20063;-60
2022/03/21 03:38:19;;;;;;;18.80;11.52;;;5.80;99.90;;;;;;5056107;28;20048;-60
2022/03/21 03:40:45;;;;;;;16.95;11.82;;;5.70;99.90;;;;;;5038154;28;20084;-60
2022/03/21 03:43:13;;;;;;;16.52;12.32;;;5.70;99.90;;;;;;5055884;28;20181;-60
2022/03/21 03:45:39;;;;;;;13.13;8.43;;;5.70;99.90;;;;;;5055440;28;20190;-60
2022/03/21 03:48:05;;;;;;;14.75;9.75;;;5.60;99.90;;;;;;5055877;28;20516;-60
2022/03/21 03:50:31;;;;;;;18.10;11.57;;;5.60;99.90;;;;;;5055268;28;20126;-60
2022/03/21 03:52:59;;;;;;;20.42;12.57;;;5.60;99.90;;;;;;5055867;28;20631;-60
2022/03/21 03:55:24;;;;;;;13.70;10.88;;;5.50;99.90;;;;;;5054882;28;20151;-60
2022/03/21 03:57:50;;;;;;;18.15;10.52;;;5.40;99.90;;;;;;5055400;28;20051;-60
2022/03/21 04:00:16;;;;;;;20.30;11.93;;;5.40;99.90;;;;;;5055048;28;20174;-60
2022/03/21 04:05:28;;;;;;;19.00;11.45;;;5.30;99.90;;;;;;5054580;28;20822;-60
2022/03/21 04:07:54;;;;;;;16.65;11.82;;;5.30;99.90;;;;;;5054611;28;20052;-60
2022/03/21 04:10:22;;;;;;;15.77;10.57;;;5.30;99.90;;;;;;5054894;28;20052;-60
2022/03/21 04:12:51;;;;;;;17.30;11.00;;;5.20;99.90;;;;;;5054415;28;20566;-60
2022/03/21 04:15:21;;;;;;;17.35;10.73;;;5.20;99.90;;;;;;5054651;28;20048;-60
2022/03/21 04:17:47;;;;;;;18.10;10.75;;;5.10;99.90;;;;;;5055269;28;20119;-60
2022/03/21 04:20:13;;;;;;;23.00;12.63;;;5.10;99.90;;;;;;5054200;28;20601;-62
2022/03/21 04:22:39;;;;;;;18.30;9.88;;;5.10;99.90;;;;;;5054943;28;20051;-60
2022/03/21 04:25:07;;;;;;;15.68;9.63;;;5.10;99.90;;;;;;5054617;28;20045;-60
2022/03/21 04:27:33;;;;;;;14.77;10.32;;;5.20;99.90;;;;;;5054572;28;20051;-60
2022/03/21 04:30:02;;;;;;;16.00;11.05;;;5.10;99.90;;;;;;5054600;28;20052;-60
2022/03/21 04:32:27;;;;;;;17.45;11.73;;;5.00;99.90;;;;;;5054318;28;20045;-60
2022/03/21 04:34:53;;;;;;;19.67;11.13;;;5.00;99.90;;;;;;5054930;28;20566;-60
2022/03/21 04:37:19;;;;;;;14.75;10.50;;;4.90;99.90;;;;;;5054424;28;20060;-60
2022/03/21 04:39:45;;;;;;;14.95;9.30;;;4.90;99.90;;;;;;5054605;28;20040;-59
2022/03/21 04:42:10;;;;;;;17.63;10.65;;;4.90;99.90;;;;;;5058252;28;20048;-60
2022/03/21 04:44:36;;;;;;;16.23;10.30;;;4.90;99.90;;;;;;5058635;28;20574;-60
2022/03/21 04:47:02;;;;;;;15.05;8.70;;;4.90;99.90;;;;;;5058466;28;20052;-60
2022/03/21 04:49:27;;;;;;;16.92;9.60;;;4.80;99.90;;;;;;5058294;28;20227;-60
2022/03/21 04:51:55;;;;;;;13.50;9.05;;;4.70;99.90;;;;;;5058470;28;20135;-59
2022/03/21 04:54:21;;;;;;;17.00;10.70;;;4.80;99.90;;;;;;5057884;28;20082;-60
2022/03/21 04:56:46;;;;;;;16.45;10.23;;;4.80;99.90;;;;;;5056848;28;20049;-59
2022/03/21 04:59:12;;;;;;;17.60;11.15;;;4.70;99.90;;;;;;5057893;28;20044;-60
2022/03/21 05:01:38;;;;;;;17.83;10.20;;;4.70;99.90;;;;;;5057895;28;20048;-60
2022/03/21 05:04:03;;;;;;;20.83;11.45;;;4.70;99.90;;;;;;5040666;28;20132;-60
2022/03/21 05:06:29;;;;;;;18.45;12.10;;;4.70;99.90;;;;;;5057735;28;20136;-60
2022/03/21 05:08:54;;;;;;;15.20;9.85;;;4.60;99.90;;;;;;5058225;28;20147;-60
2022/03/21 05:11:20;;;;;;;15.73;10.75;;;4.60;99.90;;;;;;5058372;28;20067;-60
2022/03/21 05:13:46;;;;;;;19.85;11.45;;;4.50;99.90;;;;;;5057631;28;20053;-60
2022/03/21 05:16:11;;;;;;;12.68;7.88;;;5.60;99.90;;;;;;5058204;28;20054;-60
2022/03/21 05:18:37;;;;;;;15.32;10.65;;;4.50;99.90;;;;;;5058138;28;20935;-60
2022/03/21 05:21:04;;;;;;;17.08;10.82;;;4.40;99.90;;;;;;5058625;28;20127;-60
2022/03/21 05:31:53;;;;;;;17.15;9.00;;;4.30;99.90;;;;;;5058413;28;20602;-60
2022/03/21 05:37:03;;;;;;;17.27;10.18;;;4.30;99.90;;;;;;5057163;28;20052;-59
2022/03/21 05:39:28;;;;;;;15.02;10.00;;;4.20;99.90;;;;;;5040244;28;20059;-61
2022/03/21 05:41:54;;;;;;;14.88;10.50;;;4.20;99.90;;;;;;5058774;28;20047;-59
2022/03/21 05:44:20;;;;;;;18.13;10.77;;;4.20;99.90;;;;;;5057498;28;20815;-59
2022/03/21 05:46:46;;;;;;;14.27;11.52;;;4.20;99.90;;;;;;5039921;28;20658;-61
2022/03/21 05:49:12;;;;;;;15.90;11.68;;;4.10;99.90;;;;;;5057792;28;20044;-61
2022/03/21 05:51:40;;;;;;;15.20;9.95;;;4.00;99.90;;;;;;5057292;28;20052;-59
2022/03/21 05:54:11;;;;;;;17.10;10.75;;;3.90;99.90;;;;;;5057347;28;20047;-61
2022/03/21 05:56:39;;;;;;;17.40;10.38;;;4.00;99.90;;;;;;5056705;28;20041;-59
2022/03/21 06:01:52;;;;;;;17.90;9.55;;;4.00;99.90;;;;;;5025201;28;20391;-59
2022/03/21 06:04:19;;;;;;;19.73;11.57;;;3.90;99.90;;;;;;5056835;28;20057;-60
2022/03/21 06:06:45;;;;;;;18.40;11.02;;;3.90;99.90;;;;;;5057508;28;20078;-61
2022/03/21 06:09:11;;;;;;;16.05;9.05;;;4.00;99.90;;;;;;5057925;28;20041;-61
2022/03/21 06:11:37;;;;;;;16.83;11.05;;;4.00;99.90;;;;;;5039298;28;20064;-60
2022/03/21 06:14:07;;;;;;;22.60;12.30;;;4.00;99.90;;;;;;5057044;28;20876;-60
2022/03/21 06:16:33;;;;;;;20.33;13.48;;;4.10;99.90;;;;;;5057144;28;20040;-60
2022/03/21 06:19:00;;;;;;;18.90;12.57;;;4.20;99.90;;;;;;5038798;28;20060;-59
2022/03/21 06:21:28;;;;;;;18.83;11.52;;;4.20;99.90;;;;;;5056597;28;20086;-60
2022/03/21 06:23:54;;;;;;;19.48;11.85;;;4.30;99.90;;;;;;5057145;28;20103;-61
2022/03/21 06:26:19;;;;;;;17.95;12.32;;;4.30;99.90;;;;;;5038464;28;20764;-60
2022/03/21 06:28:46;;;;;;;22.83;12.45;;;4.30;99.90;;;;;;5038498;28;20044;-60
2022/03/21 06:31:11;;;;;;;11.13;8.13;;;4.40;99.90;;;;;;5041243;28;20457;-60
2022/03/21 06:33:37;;;;;;;11.65;7.90;;;4.30;99.90;;;;;;5022837;28;20048;-60
2022/03/21 06:36:03;;;;;;;11.73;7.43;;;4.20;99.90;;;;;;5044925;28;20056;-60
2022/03/21 06:38:29;;;;;;;11.57;6.43;;;4.20;99.90;;;;;;5022068;28;20080;-60
2022/03/21 06:40:58;;;;;;;12.00;7.80;;;4.20;99.90;;;;;;5045710;28;20126;-60
2022/03/21 06:43:24;;;;;;;12.38;8.43;;;4.20;99.90;;;;;;5022120;28;20100;-60
2022/03/21 06:45:54;;;;;;;12.48;7.93;;;4.10;99.90;;;;;;5037445;28;20044;-61
2022/03/21 06:48:21;;;;;;;12.75;8.52;;;4.00;99.90;;;;;;5035621;28;20080;-60
2022/03/21 06:50:47;;;;;;;14.25;9.70;;;4.00;99.90;;;;;;5038449;28;20048;-60
2022/03/21 06:53:14;;;;;;;11.77;8.05;;;4.10;99.90;;;;;;5047343;28;20040;-60
2022/03/21 06:55:40;;;;;;;11.98;8.43;;;4.20;99.90;;;;;;5051764;28;20036;-60
2022/03/21 06:58:09;;;;;;;14.20;9.75;;;4.10;99.90;;;;;;5018879;28;20044;-61
2022/03/21 07:00:34;;;;;;;16.65;10.75;;;4.10;99.90;;;;;;5040584;28;20747;-60
2022/03/21 07:03:00;;;;;;;20.77;13.77;;;4.10;99.90;;;;;;5041471;28;20151;-60
2022/03/21 07:05:28;;;;;;;16.63;12.48;;;4.10;99.90;;;;;;5044427;28;20123;-60
2022/03/21 07:07:54;;;;;;;17.83;13.40;;;4.10;99.90;;;;;;5035711;28;20915;-61
2022/03/21 07:10:20;;;;;;;24.80;14.23;;;4.20;99.90;;;;;;5041650;28;20040;-60
2022/03/21 07:12:45;;;;;;;21.40;12.05;;;4.30;99.90;;;;;;5045266;28;20056;-60
2022/03/21 07:15:11;;;;;;;19.90;12.98;;;4.50;99.90;;;;;;5038219;28;20039;-60
2022/03/21 07:17:37;;;;;;;19.20;11.85;;;4.70;99.90;;;;;;5036132;28;20047;-60
2022/03/21 07:20:03;;;;;;;19.75;12.43;;;4.90;99.90;;;;;;5012757;28;20041;-60
2022/03/21 07:22:28;;;;;;;18.58;11.98;;;5.10;99.90;;;;;;5035816;28;20048;-60
2022/03/21 07:24:55;;;;;;;23.42;14.30;;;5.30;99.90;;;;;;5038614;28;20083;-62
2022/03/21 07:27:20;;;;;;;19.30;12.82;;;5.50;99.90;;;;;;5019556;28;20048;-60
2022/03/21 07:29:46;;;;;;;18.85;12.90;;;5.70;99.90;;;;;;5014746;28;20115;-60
2022/03/21 07:32:11;;;;;;;23.08;13.38;;;5.90;99.90;;;;;;5017480;28;20041;-59
2022/03/21 07:34:37;;;;;;;19.73;13.05;;;6.00;99.90;;;;;;5035084;28;20119;-60
2022/03/21 07:37:03;;;;;;;23.55;12.65;;;6.10;99.90;;;;;;5036970;28;20055;-60
2022/03/21 07:39:33;;;;;;;20.95;13.68;;;6.30;99.90;;;;;;5014953;28;20045;-60
2022/03/21 07:42:01;;;;;;;25.77;14.05;;;6.40;99.90;;;;;;5039454;28;20044;-61
2022/03/21 07:47:17;;;;;;;16.88;12.05;;;6.70;99.90;;;;;;5033284;28;20958;-60
2022/03/21 07:49:46;;;;;;;17.30;12.27;;;6.80;99.90;;;;;;5032460;28;20107;-61
2022/03/21 07:52:12;;;;;;;25.33;13.77;;;7.00;99.90;;;;;;5032857;28;20052;-60
2022/03/21 07:54:39;;;;;;;18.20;12.90;;;7.90;99.90;;;;;;5033675;28;20041;-61
2022/03/21 07:57:05;;;;;;;22.58;14.60;;;9.40;99.90;;;;;;5034633;28;20060;-61
2022/03/21 07:59:31;;;;;;;21.55;13.30;;;10.50;99.90;;;;;;5052705;28;20102;-60
2022/03/21 08:01:57;;;;;;;19.27;13.70;;;11.20;99.90;;;;;;5053575;28;20033;-61
2022/03/21 08:04:23;;;;;;;21.27;12.52;;;11.70;99.90;;;;;;5052208;28;20058;-60
2022/03/21 08:06:49;;;;;;;23.48;15.07;;;12.40;99.90;;;;;;5052895;28;20744;-61
2022/03/21 08:09:14;;;;;;;21.52;13.07;;;13.00;99.90;;;;;;4694698;28;10000478;-60
2022/03/21 08:11:40;;;;;;;20.85;13.90;;;13.80;99.90;;;;;;5032791;28;20116;-61
2022/03/21 08:14:06;;;;;;;22.50;13.77;;;14.30;99.90;;;;;;5021233;28;20124;-61
2022/03/21 08:16:31;;;;;;;23.90;13.00;;;15.00;99.90;;;;;;5043257;28;20598;-60
2022/03/21 08:18:57;;;;;;;17.60;13.07;;;15.50;99.90;;;;;;5040777;28;20592;-60
2022/03/21 08:21:23;;;;;;;21.65;13.50;;;15.80;99.90;;;;;;5026128;28;20053;-61
2022/03/21 08:23:49;;;;;;;18.15;12.93;;;16.40;99.90;;;;;;5043758;28;20872;-60
2022/03/21 08:26:16;;;;;;;21.92;12.30;;;16.90;99.90;;;;;;5042545;28;20048;-60
2022/03/21 08:28:44;;;;;;;17.65;12.38;;;17.70;99.90;;;;;;5041503;28;20045;-61
2022/03/21 08:31:15;;;;;;;16.45;12.95;;;18.30;99.90;;;;;;5034491;28;20053;-60
2022/03/21 08:33:41;;;;;;;17.05;12.35;;;18.10;98.10;;;;;;5022038;28;20041;-62
2022/03/21 08:36:08;;;;;;;15.30;11.90;;;17.90;98.00;;;;;;5046641;28;20052;-61
2022/03/21 08:38:34;;;;;;;16.52;11.88;;;18.00;97.80;;;;;;5039342;28;20106;-60
2022/03/21 08:41:02;;;;;;;17.33;13.35;;;17.80;97.60;;;;;;5047674;28;20052;-60
2022/03/21 08:43:28;;;;;;;18.23;13.10;;;18.50;97.30;;;;;;5039667;28;20255;-60
2022/03/21 08:45:53;;;;;;;17.42;12.90;;;18.80;96.40;;;;;;5036374;28;20890;-60
2022/03/21 08:48:19;;;;;;;15.82;12.65;;;19.00;95.40;;;;;;5046206;28;20554;-62
2022/03/21 08:50:44;;;;;;;17.63;14.35;;;19.60;94.80;;;;;;5028759;28;20049;-60
2022/03/21 08:53:10;;;;;;;20.25;13.60;;;19.80;93.60;;;;;;5036767;28;20039;-61
2022/03/21 08:55:36;;;;;;;19.98;13.32;;;19.90;91.20;;;;;;5039988;28;20052;-61
2022/03/21 08:58:04;;;;;;;19.05;14.38;;;20.20;89.60;;;;;;5021352;28;20083;-61
2022/03/21 09:00:30;;;;;;;22.42;15.45;;;20.60;88.00;;;;;;5034600;28;20671;-61
2022/03/21 09:02:55;;;;;;;20.30;15.65;;;20.80;84.80;;;;;;5027888;28;20041;-61
2022/03/21 09:05:21;;;;;;;19.90;15.00;;;21.20;81.60;;;;;;5041460;28;20076;-61
2022/03/21 09:07:47;;;;;;;23.50;16.00;;;20.80;76.00;;;;;;5041123;28;20041;-61
2022/03/21 09:10:14;;;;;;;23.52;14.88;;;21.20;75.20;;;;;;5053223;28;20067;-62
2022/03/21 09:12:42;;;;;;;22.25;15.38;;;21.20;72.50;;;;;;5040490;28;20045;-61
2022/03/21 09:15:08;;;;;;;23.05;14.68;;;21.50;71.00;;;;;;5038957;28;20082;-61
2022/03/21 09:17:37;;;;;;;22.90;15.00;;;22.00;64.80;;;;;;5055311;28;20131;-61
2022/03/21 09:20:02;;;;;;;19.33;14.27;;;21.20;65.60;;;;;;5053723;28;20053;-61
2022/03/21 09:22:28;;;;;;;23.27;15.93;;;21.50;66.70;;;;;;5052939;28;20055;-60
2022/03/21 09:24:57;;;;;;;17.80;15.52;;;22.00;66.40;;;;;;5037336;28;20064;-59
2022/03/21 09:27:22;;;;;;;21.83;14.55;;;21.60;64.60;;;;;;5032669;28;20049;-60
2022/03/21 09:29:51;;;;;;;20.33;15.23;;;21.50;64.10;;;;;;5034432;28;20048;-60
2022/03/21 09:32:17;;;;;;;20.27;13.90;;;21.80;63.90;;;;;;5034470;28;20049;-60
2022/03/21 09:34:43;;;;;;;23.42;15.20;;;21.60;60.80;;;;;;5033624;28;20091;-61
2022/03/21 09:37:12;;;;;;;20.90;15.43;;;21.40;61.00;;;;;;5048693;28;20902;-60
2022/03/21 09:39:37;;;;;;;21.38;15.65;;;21.70;60.60;;;;;;5054904;28;20053;-60
2022/03/21 09:42:03;;;;;;;21.63;16.33;;;21.70;59.80;;;;;;5055192;28;20768;-61
2022/03/21 09:44:29;;;;;;;21.20;15.23;;;21.80;58.90;;;;;;5037888;28;20060;-60
2022/03/21 09:46:55;;;;;;;21.30;15.32;;;22.10;58.30;;;;;;5055017;28;20052;-60
2022/03/21 09:49:25;;;;;;;22.15;15.68;;;22.00;58.40;;;;;;5056119;28;20048;-61
2022/03/21 09:51:53;;;;;;;19.83;15.15;;;21.50;57.30;;;;;;5055077;28;20159;-60
2022/03/21 09:54:19;;;;;;;22.52;16.45;;;21.40;56.50;;;;;;5055919;28;20072;-60
2022/03/21 09:56:45;;;;;;;21.92;15.23;;;21.60;57.90;;;;;;5055382;28;20210;-61
2022/03/21 09:59:11;;;;;;;21.52;16.17;;;21.70;58.00;;;;;;5056717;28;20780;-61
2022/03/21 10:01:41;;;;;;;23.77;15.95;;;21.80;55.60;;;;;;5058116;28;20045;-60
2022/03/21 10:04:08;;;;;;;22.30;16.63;;;21.90;57.50;;;;;;5057520;28;20056;-60
2022/03/21 10:06:40;;;;;;;22.25;15.70;;;22.40;57.30;;;;;;5056930;28;20048;-61
2022/03/21 10:09:25;;;;;;;17.67;14.38;;;22.40;55.30;;;;;;5057674;28;20079;-61
2022/03/21 10:11:55;;;;;;;18.23;13.55;;;22.30;55.90;;;;;;5057136;28;20154;-61
2022/03/21 10:14:28;;;;;;;16.27;13.70;;;22.50;57.00;;;;;;5057003;28;20102;-61
2022/03/21 10:17:01;;;;;;;22.33;15.15;;;22.70;56.50;;;;;;5056843;28;20064;-61
2022/03/21 10:19:39;;;;;;;16.98;14.23;;;22.40;56.90;;;;;;5038894;28;20051;-61
2022/03/21 10:22:07;;;;;;;19.88;13.85;;;22.50;57.90;;;;;;5039464;28;20484;-61
2022/03/21 10:24:42;;;;;;;20.50;14.25;;;22.30;58.00;;;;;;5056432;28;20527;-61
2022/03/21 10:27:45;;;;;;;21.05;14.43;;;22.10;57.40;;;;;;5056880;28;20151;-61
2022/03/21 10:30:22;;;;;;;19.05;13.63;;;21.40;56.20;;;;;;5057084;28;20043;-61
2022/03/21 10:32:53;;;;;;;41.00;15.88;;;21.70;56.20;;;;;;5057193;28;20064;-61
2022/03/21 10:35:23;;;;;;;18.25;14.27;;;21.80;57.70;;;;;;5057216;28;20067;-60
2022/03/21 10:38:00;;;;;;;21.85;14.75;;;22.30;57.40;;;;;;5055492;28;20062;-60
2022/03/21 10:40:32;;;;;;;21.52;15.25;;;22.80;56.20;;;;;;5056109;28;20048;-60
2022/03/21 10:43:00;;;;;;;21.27;16.40;;;23.10;55.20;;;;;;5039074;28;20091;-60
2022/03/21 10:45:47;;;;;;;20.75;15.13;;;22.80;55.30;;;;;;5055747;28;20302;-60
2022/03/21 10:48:18;;;;;;;24.02;14.43;;;23.10;54.70;;;;;;5056447;28;20041;-61
2022/03/21 10:50:49;;;;;;;21.70;16.20;;;23.30;55.00;;;;;;5055043;28;20106;-61
2022/03/21 10:53:17;;;;;;;20.63;16.27;;;23.00;54.50;;;;;;5040174;28;20044;-61
2022/03/21 10:55:47;;;;;;;23.17;16.17;;;22.10;54.40;;;;;;5047032;28;20057;-60
2022/03/21 10:58:16;;;;;;;22.77;16.35;;;20.00;55.80;;;;;;5056507;28;20054;-60
2022/03/21 11:00:42;;;;;;;19.15;14.93;;;19.00;57.80;;;;;;5056057;28;20793;-60
2022/03/21 11:03:15;;;;;;;20.85;15.60;;;18.10;58.90;;;;;;5056225;28;20052;-61
2022/03/21 11:05:48;;;;;;;22.75;16.35;;;17.00;60.80;;;;;;5055443;28;20448;-60
2022/03/21 11:08:18;;;;;;;20.08;15.35;;;15.90;63.50;;;;;;5056135;28;20135;-60
2022/03/21 11:10:47;;;;;;;21.13;15.40;;;15.60;66.40;;;;;;5038141;28;20048;-60
2022/03/21 11:13:13;;;;;;;20.70;15.68;;;15.50;68.30;;;;;;5055709;28;20159;-61
2022/03/21 11:15:40;;;;;;;18.67;14.95;;;15.50;69.10;;;;;;5038601;28;20049;-60
2022/03/21 11:18:07;;;;;;;23.60;16.83;;;15.50;69.00;;;;;;5038395;28;20265;-60
2022/03/21 11:20:33;;;;;;;22.60;15.32;;;16.20;70.00;;;;;;5056252;28;20044;-61
2022/03/21 11:22:59;;;;;;;24.30;16.35;;;15.60;69.50;;;;;;5056279;28;20133;-60
2022/03/21 11:25:29;;;;;;;25.02;17.48;;;15.40;69.40;;;;;;5055461;28;20040;-60
2022/03/21 11:28:22;;;;;;;28.67;16.42;;;15.20;71.00;;;;;;5037236;28;20056;-60
2022/03/21 11:31:08;;;;;;;28.35;16.75;;;14.90;71.40;;;;;;5055949;28;20059;-59
2022/03/21 11:33:45;;;;;;;25.27;16.13;;;14.80;73.60;;;;;;5056075;28;20044;-60
2022/03/21 11:36:12;;;;;;;25.30;16.98;;;14.90;73.30;;;;;;5055102;28;20052;-60
2022/03/21 11:38:45;;;;;;;21.90;16.15;;;15.00;73.40;;;;;;5055523;28;20060;-60
2022/03/21 11:41:10;;;;;;;;;;;15.00;73.20;;;;;;5055530;28;20047;-60
2022/03/21 11:43:38;;;;;;;18.77;14.50;;;15.10;74.80;;;;;;5037577;28;19932;-60
2022/03/21 11:46:25;;;;;;;20.83;14.80;;;15.20;73.30;;;;;;5056124;28;20054;-60
2022/03/21 11:48:53;;;;;;;25.83;14.85;;;15.40;73.70;;;;;;5038229;28;20881;-60
2022/03/21 11:51:18;;;;;;;26.13;16.48;;;15.50;72.90;;;;;;5059567;28;20052;-60
2022/03/21 11:53:46;;;;;;;24.05;15.95;;;15.60;72.60;;;;;;5060112;28;20086;-60
2022/03/21 11:56:41;;;;;;;27.48;16.02;;;15.70;72.40;;;;;;5037431;28;20083;-60
2022/03/21 11:59:07;;;;;;;24.35;15.75;;;15.80;73.80;;;;;;5040189;28;20049;-61
2022/03/21 12:01:33;;;;;;;26.15;16.80;;;15.80;72.70;;;;;;5039667;28;20056;-60
2022/03/21 12:04:24;;;;;;;23.20;15.80;;;15.50;72.80;;;;;;5038714;28;20049;-60
2022/03/21 12:06:49;;;;;;;21.00;14.93;;;15.40;74.80;;;;;;5022136;28;20057;-60
2022/03/21 12:09:21;;;;;;;23.90;16.48;;;15.10;74.50;;;;;;5039462;28;20056;-60
2022/03/21 12:11:50;;;;;;;24.48;16.13;;;15.00;74.90;;;;;;5039396;28;20156;-60
2022/03/21 12:14:27;;;;;;;21.33;13.95;;;15.00;75.80;;;;;;5040054;28;20052;-60
2022/03/21 12:17:01;;;;;;;23.75;15.85;;;15.10;77.10;;;;;;5039451;28;20053;-60
2022/03/21 12:19:46;;;;;;;18.17;13.25;;;15.20;75.70;;;;;;5039039;28;20049;-61
2022/03/21 12:22:29;;;;;;;18.13;14.40;;;15.50;73.50;;;;;;5039109;28;20052;-60
2022/03/21 12:24:58;;;;;;;18.85;12.95;;;15.90;71.70;;;;;;5021205;28;20469;-61
2022/03/21 12:27:55;;;;;;;20.52;13.02;;;15.70;70.50;;;;;;5038938;28;20057;-61
2022/03/21 12:30:20;;;;;;;20.42;13.85;;;15.90;69.00;;;;;;5038824;28;20049;-61
2022/03/21 12:33:09;;;;;;;19.90;13.57;;;15.90;68.40;;;;;;5039001;28;20777;-60
2022/03/21 12:35:44;;;;;;;22.33;14.63;;;16.00;66.80;;;;;;5003014;28;20053;-60
2022/03/21 12:38:22;;;;;;;19.50;13.77;;;16.00;67.30;;;;;;5039036;28;20061;-60
2022/03/21 12:40:51;;;;;;;19.85;13.32;;;16.10;66.50;;;;;;5038998;28;20049;-60
2022/03/21 12:43:25;;;;;;;20.73;14.00;;;16.10;66.50;;;;;;5038193;28;20144;-61
2022/03/21 12:46:04;;;;;;;20.38;13.60;;;16.20;66.80;;;;;;5038183;28;20048;-60
2022/03/21 12:48:34;;;;;;;22.45;14.32;;;16.20;65.60;;;;;;5038604;28;20055;-60
2022/03/21 12:50:59;;;;;;;22.73;13.35;;;16.20;63.40;;;;;;5038712;28;20052;-60
2022/03/21 12:53:45;;;;;;;19.45;13.00;;;16.20;64.30;;;;;;5037661;28;20048;-60
2022/03/21 12:56:13;;;;;;;22.55;14.88;;;16.30;66.20;;;;;;5038349;28;20659;-61
2022/03/21 12:58:45;;;;;;;21.02;14.20;;;16.30;65.30;;;;;;5036734;28;20789;-60
2022/03/21 13:01:11;;;;;;;16.70;14.23;;;16.40;65.50;;;;;;5037274;28;20080;-60